Time;durP1;ratioP1;P1;durP2;ratioP2;P2;SDS_P1;SDS_P2;PMS_P1;PMS_P2;Temp;Humidity;BMP_temperature;BMP_pressure;BME280_temperature;BME280_humidity;BME280_pressure;Samples;Min_cycle;Max_cycle;Signal;HPM_P1;HPM_P2
2022/09/17 00:01:21;;;;;;;18.48;13.02;;;18.50;99.90;;;;;;5075448;28;20043;-50
2022/09/17 00:03:55;;;;;;;17.73;11.40;;;18.60;99.90;;;;;;5076713;28;20486;-50
2022/09/17 00:06:23;;;;;;;15.68;11.38;;;18.50;99.90;;;;;;5074111;28;20412;-51
2022/09/17 00:08:49;;;;;;;14.00;11.90;;;18.50;99.90;;;;;;5074899;28;20032;-50
2022/09/17 00:11:19;;;;;;;14.93;11.75;;;18.50;99.90;;;;;;5075124;28;20045;-50
2022/09/17 00:13:46;;;;;;;17.38;13.95;;;18.60;99.90;;;;;;5075295;28;20459;-53
2022/09/17 00:16:19;;;;;;;17.90;14.02;;;18.60;99.90;;;;;;5076366;28;20044;-50
2022/09/17 00:18:45;;;;;;;18.38;14.35;;;18.70;99.90;;;;;;5079686;28;20105;-51
2022/09/17 00:21:16;;;;;;;19.35;15.38;;;18.40;99.90;;;;;;5076074;28;20068;-50
2022/09/17 00:23:43;;;;;;;32.72;21.52;;;18.30;99.90;;;;;;5075598;28;20108;-51
2022/09/17 00:26:09;;;;;;;23.27;16.05;;;18.30;99.90;;;;;;5076779;28;20027;-51
2022/09/17 00:28:34;;;;;;;21.30;15.15;;;18.30;99.90;;;;;;5077986;28;20029;-51
2022/09/17 00:31:05;;;;;;;20.35;14.65;;;18.20;99.90;;;;;;5076643;28;20041;-51
2022/09/17 00:33:31;;;;;;;54.25;45.17;;;17.70;99.90;;;;;;5076618;28;20044;-50
2022/09/17 00:35:59;;;;;;;39.28;21.58;;;17.50;99.90;;;;;;5079534;28;20044;-50
2022/09/17 00:38:25;;;;;;;12.90;10.50;;;17.30;99.90;;;;;;5078550;28;20024;-50
2022/09/17 00:40:51;;;;;;;15.00;11.13;;;17.10;99.90;;;;;;5074412;28;20051;-50
2022/09/17 00:43:32;;;;;;;16.90;11.95;;;17.10;99.90;;;;;;5075321;28;20048;-50
2022/09/17 00:45:58;;;;;;;17.55;9.93;;;17.30;99.90;;;;;;5071495;28;20044;-50
2022/09/17 00:48:24;;;;;;;13.85;11.13;;;17.20;99.90;;;;;;5077576;28;20486;-50
2022/09/17 00:50:51;;;;;;;11.15;9.30;;;17.30;99.90;;;;;;5076694;28;20125;-50
2022/09/17 00:53:20;;;;;;;14.27;10.65;;;17.40;99.90;;;;;;5079679;28;20028;-50
2022/09/17 00:55:57;;;;;;;12.73;10.10;;;17.40;99.90;;;;;;5075456;28;20059;-50
2022/09/17 00:58:24;;;;;;;12.50;9.88;;;17.40;99.90;;;;;;5076144;28;20025;-51
2022/09/17 01:00:50;;;;;;;11.02;9.32;;;17.40;99.90;;;;;;5073028;28;20050;-50
2022/09/17 01:03:16;;;;;;;12.35;9.60;;;17.20;99.90;;;;;;5075633;28;20028;-51
2022/09/17 01:05:52;;;;;;;10.93;9.15;;;17.10;99.90;;;;;;5078515;28;20021;-50
2022/09/17 01:08:31;;;;;;;16.90;9.38;;;17.00;99.90;;;;;;5044000;28;20036;-50
2022/09/17 01:11:09;;;;;;;11.15;8.57;;;17.00;99.90;;;;;;5079615;28;20027;-51
2022/09/17 01:14:07;;;;;;;18.40;9.35;;;16.80;99.90;;;;;;5073266;28;20025;-51
2022/09/17 01:16:47;;;;;;;13.38;8.45;;;16.80;99.90;;;;;;5072177;28;20088;-53
2022/09/17 01:19:19;;;;;;;12.98;8.73;;;16.60;99.90;;;;;;5071580;28;20059;-50
2022/09/17 01:22:32;;;;;;;19.02;12.43;;;16.50;99.90;;;;;;5078267;28;20174;-51
2022/09/17 01:25:23;;;;;;;52.03;24.92;;;16.40;99.90;;;;;;5073528;28;20045;-50
2022/09/17 04:43:55;;;;;;;4.25;3.85;;;15.60;99.90;;;;;;5100812;27;20386;-51
2022/09/17 04:46:20;;;;;;;4.72;3.85;;;15.80;99.90;;;;;;5087702;28;20036;-52
2022/09/17 04:48:46;;;;;;;4.40;3.40;;;15.80;99.90;;;;;;5083961;28;20093;-51
2022/09/17 04:51:12;;;;;;;4.55;3.40;;;15.80;99.90;;;;;;5088726;28;20028;-51
2022/09/17 04:53:38;;;;;;;4.03;3.45;;;15.90;99.90;;;;;;5085284;28;20064;-48
2022/09/17 04:56:04;;;;;;;4.30;3.30;;;15.80;99.90;;;;;;5082103;28;20016;-49
2022/09/17 04:58:30;;;;;;;3.83;2.97;;;15.80;99.90;;;;;;5058028;28;20124;-50
2022/09/17 05:00:56;;;;;;;5.95;3.17;;;15.70;99.90;;;;;;5089088;28;20033;-49
2022/09/17 05:03:21;;;;;;;3.10;2.20;;;15.50;99.90;;;;;;5087207;28;20459;-49
2022/09/17 05:05:47;;;;;;;3.30;2.20;;;15.50;99.90;;;;;;5099346;28;20036;-51
2022/09/17 05:08:13;;;;;;;4.60;2.75;;;15.20;99.90;;;;;;5089207;28;20024;-49
2022/09/17 05:10:38;;;;;;;3.42;2.33;;;15.20;99.90;;;;;;5051433;28;20028;-49
2022/09/17 05:13:04;;;;;;;3.42;2.22;;;15.10;99.90;;;;;;5085684;28;20040;-49
2022/09/17 05:15:30;;;;;;;3.90;2.47;;;15.10;99.90;;;;;;5086131;28;20116;-49
2022/09/17 05:17:56;;;;;;;2.47;1.90;;;15.10;99.90;;;;;;5087336;28;20039;-49
2022/09/17 05:20:21;;;;;;;4.60;3.75;;;14.90;99.90;;;;;;5084835;28;20111;-49
2022/09/17 05:22:52;;;;;;;20.52;12.20;;;14.90;99.90;;;;;;5068423;28;20032;-49
2022/09/17 05:25:23;;;;;;;4.38;2.83;;;14.90;99.90;;;;;;5082474;28;20028;-50
2022/09/17 05:27:51;;;;;;;7.57;2.93;;;15.00;99.90;;;;;;5088657;28;20047;-51
2022/09/17 05:30:17;;;;;;;4.05;2.67;;;15.10;99.90;;;;;;5086480;28;20036;-50
2022/09/17 05:32:42;;;;;;;4.30;3.22;;;15.10;99.90;;;;;;5085504;28;20070;-49
2022/09/17 05:35:09;;;;;;;5.13;3.33;;;15.10;99.90;;;;;;5085997;28;20062;-49
2022/09/17 05:37:35;;;;;;;5.32;3.50;;;15.20;99.90;;;;;;5067800;28;20032;-49
2022/09/17 05:40:04;;;;;;;8.13;5.57;;;15.30;99.90;;;;;;5085390;28;20109;-50
2022/09/17 05:42:30;;;;;;;5.93;4.45;;;15.20;99.90;;;;;;5085221;28;20044;-49
2022/09/17 05:44:56;;;;;;;6.07;3.92;;;15.20;99.90;;;;;;5073277;28;20035;-49
2022/09/17 05:47:21;;;;;;;5.35;4.10;;;15.30;99.90;;;;;;5068310;28;20032;-50
2022/09/17 06:01:41;;;;;;;16.10;7.95;;;15.20;99.90;;;;;;5086610;27;20879;-50
2022/09/17 06:04:08;;;;;;;371.55;340.45;;;15.50;99.90;;;;;;5070745;28;20036;-50
2022/09/17 06:06:35;;;;;;;4.00;3.35;;;15.40;99.90;;;;;;5088913;28;20115;-50
2022/09/17 06:09:01;;;;;;;7.22;4.22;;;15.30;99.90;;;;;;5066833;28;20039;-50
2022/09/17 06:11:27;;;;;;;6.97;3.80;;;15.30;99.90;;;;;;5065689;28;20029;-51
2022/09/17 06:13:54;;;;;;;60.88;42.83;;;15.20;99.90;;;;;;5080524;28;20028;-50
2022/09/17 06:16:21;;;;;;;45.53;33.25;;;15.10;99.90;;;;;;5087031;28;20438;-50
2022/09/17 06:18:48;;;;;;;535.97;487.80;;;15.20;99.90;;;;;;5087403;28;20033;-47
2022/09/17 06:21:16;;;;;;;165.52;147.38;;;15.30;99.90;;;;;;5079222;28;20553;-49
2022/09/17 06:23:42;;;;;;;487.42;452.15;;;15.40;99.90;;;;;;5080091;28;20060;-49
2022/09/17 06:26:08;;;;;;;372.20;338.20;;;15.40;99.90;;;;;;5089170;28;20029;-48
2022/09/17 06:28:35;;;;;;;5.70;3.90;;;15.40;99.90;;;;;;5078826;28;20024;-50
2022/09/17 06:31:02;;;;;;;139.80;106.63;;;15.50;99.90;;;;;;5078259;28;20032;-47
2022/09/17 06:33:29;;;;;;;9.93;8.25;;;15.50;99.90;;;;;;5082519;28;20081;-48
2022/09/17 06:36:00;;;;;;;3.15;2.75;;;15.50;99.90;;;;;;5088837;28;20032;-48
2022/09/17 06:38:27;;;;;;;4.30;2.92;;;15.20;99.90;;;;;;5043475;28;20032;-49
2022/09/17 06:40:53;;;;;;;7.45;4.95;;;15.20;99.90;;;;;;5053778;28;20045;-51
2022/09/17 06:43:19;;;;;;;5.28;3.28;;;15.20;99.90;;;;;;5089114;28;20036;-49
2022/09/17 06:45:59;;;;;;;9.35;5.07;;;15.20;99.90;;;;;;5090954;28;20054;-49
2022/09/17 06:48:26;;;;;;;4.88;3.28;;;15.30;99.90;;;;;;5085431;28;20032;-49
2022/09/17 06:50:53;;;;;;;4.60;3.35;;;15.40;99.90;;;;;;5095049;28;20039;-49
2022/09/17 06:53:20;;;;;;;3.88;3.33;;;15.40;99.90;;;;;;5078870;28;20047;-50
2022/09/17 06:55:46;;;;;;;4.20;3.33;;;15.50;99.90;;;;;;5081134;28;20534;-50
2022/09/17 06:58:12;;;;;;;4.78;3.08;;;15.50;99.90;;;;;;5078737;28;20048;-49
2022/09/17 07:00:38;;;;;;;4.03;3.30;;;15.60;99.90;;;;;;5078436;28;20089;-50
2022/09/17 07:03:03;;;;;;;4.55;3.60;;;15.40;99.90;;;;;;4999913;28;20037;-49
2022/09/17 07:05:31;;;;;;;3.90;3.20;;;15.40;99.90;;;;;;5063614;28;20522;-49
2022/09/17 07:08:01;;;;;;;8.55;4.47;;;15.50;99.90;;;;;;5066969;28;20491;-49
2022/09/17 07:10:28;;;;;;;4.78;3.47;;;15.50;99.90;;;;;;5072082;28;20077;-50
2022/09/17 07:12:53;;;;;;;4.47;3.22;;;15.50;99.90;;;;;;5062705;28;20484;-49
2022/09/17 07:15:20;;;;;;;4.03;3.25;;;15.60;99.90;;;;;;5066382;28;20035;-49
2022/09/17 07:17:46;;;;;;;5.88;3.65;;;15.70;99.90;;;;;;5060606;28;20032;-49
2022/09/17 07:20:12;;;;;;;5.07;3.78;;;15.60;99.90;;;;;;5067742;28;20052;-49
2022/09/17 07:22:38;;;;;;;89.25;66.97;;;15.50;99.90;;;;;;5064770;28;20106;-49
2022/09/17 07:25:05;;;;;;;3.85;3.22;;;15.40;99.90;;;;;;5047192;28;20094;-49
2022/09/17 07:27:31;;;;;;;4.57;3.83;;;15.50;99.90;;;;;;5032782;28;20048;-49
2022/09/17 07:29:57;;;;;;;4.05;3.47;;;15.40;99.90;;;;;;5070246;28;20036;-49
2022/09/17 07:32:24;;;;;;;4.63;3.63;;;15.50;99.90;;;;;;5065473;28;20468;-49
2022/09/17 07:34:50;;;;;;;3.92;3.17;;;15.60;99.90;;;;;;5066218;28;20021;-50
2022/09/17 07:37:17;;;;;;;4.60;3.40;;;15.70;99.90;;;;;;5070156;28;20487;-49
2022/09/17 07:39:43;;;;;;;5.13;3.72;;;15.70;99.90;;;;;;5001703;28;20416;-49
2022/09/17 07:42:09;;;;;;;7.28;3.50;;;15.80;99.90;;;;;;5046723;28;20079;-49
2022/09/17 07:44:35;;;;;;;4.90;3.35;;;15.80;99.90;;;;;;5043118;28;20056;-50
2022/09/17 07:47:01;;;;;;;4.60;3.47;;;15.90;99.90;;;;;;5077928;28;20103;-50
2022/09/17 07:49:27;;;;;;;4.70;3.45;;;15.90;99.90;;;;;;5073427;28;20044;-48
2022/09/17 07:51:56;;;;;;;4.30;3.88;;;16.00;99.90;;;;;;5068177;28;20021;-49
2022/09/17 07:54:22;;;;;;;6.88;3.30;;;16.10;99.90;;;;;;5069752;28;20029;-49
2022/09/17 07:56:48;;;;;;;4.38;3.97;;;16.20;99.90;;;;;;5068459;28;20124;-49
2022/09/17 07:59:14;;;;;;;7.22;3.55;;;16.20;99.90;;;;;;5070717;28;20503;-51
2022/09/17 08:01:39;;;;;;;5.15;3.90;;;16.20;99.90;;;;;;5066834;28;20115;-49
2022/09/17 08:04:06;;;;;;;6.25;3.85;;;16.00;99.90;;;;;;5039022;28;20090;-50
2022/09/17 08:06:36;;;;;;;4.25;3.72;;;16.10;99.90;;;;;;5075247;28;20034;-49
2022/09/17 08:09:02;;;;;;;4.35;3.67;;;16.20;99.90;;;;;;5030123;28;20047;-49
2022/09/17 08:11:29;;;;;;;4.22;3.83;;;16.20;99.90;;;;;;5079795;28;20073;-49
2022/09/17 08:13:55;;;;;;;3.72;3.30;;;16.30;99.90;;;;;;5063856;28;20549;-50
2022/09/17 08:16:22;;;;;;;4.85;4.05;;;16.30;99.90;;;;;;5020729;28;20049;-49
2022/09/17 08:18:53;;;;;;;4.88;3.47;;;16.30;99.90;;;;;;5029862;28;20072;-49
2022/09/17 08:21:19;;;;;;;4.32;3.80;;;16.30;99.90;;;;;;5061183;28;20040;-49
2022/09/17 08:23:45;;;;;;;5.43;4.00;;;16.40;99.90;;;;;;5015880;28;20040;-49
2022/09/17 08:26:14;;;;;;;4.93;4.20;;;16.40;99.90;;;;;;5068451;28;20392;-49
2022/09/17 08:28:44;;;;;;;4.65;3.75;;;16.40;99.90;;;;;;5079511;28;20063;-50
2022/09/17 08:31:11;;;;;;;6.90;4.13;;;16.50;99.90;;;;;;5069649;28;20047;-49
2022/09/17 08:33:39;;;;;;;6.32;4.20;;;16.60;99.90;;;;;;5063229;28;20464;-49
2022/09/17 08:36:06;;;;;;;4.72;4.20;;;16.70;99.90;;;;;;5077422;28;20032;-49
2022/09/17 08:38:36;;;;;;;4.20;3.80;;;16.80;99.90;;;;;;5028417;28;20045;-49
2022/09/17 08:41:01;;;;;;;7.22;4.47;;;16.90;99.90;;;;;;5060440;28;20033;-48
2022/09/17 08:43:30;;;;;;;5.72;4.30;;;16.90;99.90;;;;;;5073130;28;20361;-50
2022/09/17 08:45:57;;;;;;;5.45;4.38;;;16.80;99.90;;;;;;5080160;28;20028;-49
2022/09/17 08:48:29;;;;;;;5.85;5.25;;;16.90;99.90;;;;;;5064138;28;20479;-49
2022/09/17 08:50:55;;;;;;;6.70;5.70;;;16.90;99.90;;;;;;5068409;28;20507;-50
2022/09/17 08:53:25;;;;;;;6.70;5.10;;;17.00;99.90;;;;;;5016680;28;20040;-51
2022/09/17 08:55:59;;;;;;;7.68;6.82;;;16.90;99.90;;;;;;5036806;28;20548;-49
2022/09/17 08:58:52;;;;;;;8.43;6.47;;;16.70;99.90;;;;;;5070366;28;20082;-50
2022/09/17 09:01:42;;;;;;;9.00;6.55;;;16.50;99.90;;;;;;5059026;28;20040;-49
2022/09/17 09:04:23;;;;;;;7.47;6.47;;;16.60;99.90;;;;;;5064508;28;20036;-49
2022/09/17 09:07:11;;;;;;;8.30;6.00;;;16.50;99.90;;;;;;5066603;28;20025;-49
2022/09/17 09:09:45;;;;;;;7.03;6.22;;;16.30;99.90;;;;;;5068199;28;20297;-50
2022/09/17 09:12:23;;;;;;;9.07;6.80;;;16.30;99.90;;;;;;5020182;28;20095;-47
2022/09/17 09:15:04;;;;;;;8.05;7.25;;;16.40;99.90;;;;;;5064242;28;20024;-50
2022/09/17 09:17:45;;;;;;;10.10;6.97;;;16.40;99.90;;;;;;5072647;28;20036;-48
2022/09/17 09:20:54;;;;;;;8.98;6.93;;;16.50;99.90;;;;;;5073255;28;20154;-51
2022/09/17 09:23:29;;;;;;;8.20;6.88;;;16.70;99.90;;;;;;4997028;28;20088;-48
2022/09/17 09:26:17;;;;;;;9.00;7.22;;;16.70;99.90;;;;;;4999380;28;20062;-51
2022/09/17 09:29:11;;;;;;;7.82;7.03;;;16.60;99.90;;;;;;5000499;28;20142;-50
2022/09/17 09:31:55;;;;;;;9.93;7.72;;;16.70;99.90;;;;;;4995951;28;20043;-49
2022/09/17 09:34:22;;;;;;;10.02;7.90;;;17.00;99.90;;;;;;5002567;28;20409;-49
2022/09/17 09:36:50;;;;;;;7.45;6.43;;;17.10;99.90;;;;;;4995393;28;20089;-48
2022/09/17 09:39:29;;;;;;;8.48;7.05;;;17.00;99.90;;;;;;4986759;28;20121;-50
2022/09/17 09:42:09;;;;;;;9.05;6.80;;;17.10;99.90;;;;;;4999724;28;20048;-50
2022/09/17 09:44:35;;;;;;;7.40;6.10;;;17.30;99.90;;;;;;5002868;28;20032;-53
2022/09/17 09:47:31;;;;;;;7.70;6.72;;;17.20;99.90;;;;;;5003525;28;20398;-51
2022/09/17 09:50:30;;;;;;;6.97;5.90;;;17.30;99.90;;;;;;5005175;28;20037;-51
2022/09/17 09:53:48;;;;;;;8.60;5.25;;;17.40;99.90;;;;;;5004062;28;20041;-52
2022/09/17 09:56:17;;;;;;;6.47;5.15;;;17.60;99.90;;;;;;4958817;28;20046;-51
2022/09/17 09:58:42;;;;;;;6.10;5.50;;;17.60;99.90;;;;;;4962858;28;20043;-53
2022/09/17 10:01:15;;;;;;;8.13;5.78;;;17.80;99.90;;;;;;4950965;28;20047;-50
2022/09/17 10:03:44;;;;;;;5.60;4.47;;;17.80;99.90;;;;;;4941808;28;20423;-52
2022/09/17 10:06:18;;;;;;;8.00;5.85;;;17.10;99.90;;;;;;4938463;28;20059;-53
2022/09/17 10:08:54;;;;;;;6.57;4.95;;;17.00;99.90;;;;;;4910715;29;20086;-54
2022/09/17 10:11:25;;;;;;;7.13;4.68;;;17.30;99.90;;;;;;4930706;29;20086;-52
2022/09/17 10:13:51;;;;;;;5.63;4.87;;;17.50;99.90;;;;;;4927485;29;20066;-50
2022/09/17 10:16:19;;;;;;;5.80;5.03;;;17.70;99.90;;;;;;4929946;29;20127;-52
2022/09/17 10:18:47;;;;;;;5.55;4.50;;;17.80;99.90;;;;;;4936442;29;20088;-52
2022/09/17 10:21:42;;;;;;;9.15;5.25;;;17.90;99.90;;;;;;4908039;29;20044;-52
2022/09/17 10:24:28;;;;;;;6.53;5.13;;;18.00;99.90;;;;;;4854743;29;20057;-51
2022/09/17 10:27:12;;;;;;;7.15;5.20;;;18.20;99.90;;;;;;4847469;29;20045;-51
2022/09/17 10:29:46;;;;;;;8.05;4.90;;;18.30;99.90;;;;;;4839096;29;20049;-52
2022/09/17 10:32:17;;;;;;;7.43;5.82;;;18.40;99.90;;;;;;4847569;29;20046;-50
2022/09/17 10:35:17;;;;;;;7.32;6.10;;;18.50;99.90;;;;;;4870459;29;20041;-53
2022/09/17 10:37:47;;;;;;;7.30;6.60;;;18.70;99.90;;;;;;4882608;29;20038;-52
2022/09/17 10:40:19;;;;;;;6.18;5.35;;;19.00;99.90;;;;;;4868194;29;20047;-51
2022/09/17 10:42:50;;;;;;;6.70;6.00;;;19.10;99.90;;;;;;4876767;29;20053;-52
2022/09/17 10:45:27;;;;;;;11.75;8.55;;;19.10;99.90;;;;;;4879563;29;20063;-52
2022/09/17 11:01:31;;;;;;;7.70;6.85;;;18.70;99.90;;;;;;5059634;28;20467;-51
2022/09/17 11:04:02;;;;;;;7.25;6.45;;;18.70;99.90;;;;;;5040146;28;20052;-51
2022/09/17 11:06:37;;;;;;;7.65;6.85;;;18.30;99.90;;;;;;5038112;28;20148;-51
2022/09/17 11:09:25;;;;;;;8.75;7.00;;;18.30;99.90;;;;;;5024753;28;20132;-51
2022/09/17 11:12:13;;;;;;;8.18;7.22;;;18.10;99.90;;;;;;5036212;28;20432;-50
2022/09/17 11:15:09;;;;;;;9.13;7.20;;;17.80;99.90;;;;;;5011898;28;20038;-52
2022/09/17 11:17:57;;;;;;;7.82;7.03;;;17.80;99.90;;;;;;5040308;28;20029;-52
2022/09/17 11:20:52;;;;;;;7.82;7.03;;;17.70;99.90;;;;;;5040612;28;20025;-52
2022/09/17 11:23:38;;;;;;;8.63;6.20;;;17.90;99.90;;;;;;4987153;28;20057;-51
2022/09/17 11:26:15;;;;;;;8.70;6.93;;;17.90;99.90;;;;;;4983940;28;20111;-50
2022/09/17 11:28:58;;;;;;;6.57;5.88;;;17.90;99.90;;;;;;4983786;28;20047;-49
2022/09/17 11:31:36;;;;;;;6.95;6.10;;;17.90;99.90;;;;;;4982229;28;20050;-49
2022/09/17 11:34:36;;;;;;;8.55;6.63;;;18.00;99.90;;;;;;4984077;28;20043;-51
2022/09/17 11:37:33;;;;;;;6.85;6.15;;;18.10;99.90;;;;;;4986475;28;20510;-50
2022/09/17 11:40:05;;;;;;;8.18;6.68;;;18.10;99.90;;;;;;4924193;28;20074;-54
2022/09/17 11:42:57;;;;;;;8.50;7.53;;;17.80;99.90;;;;;;4986287;28;20551;-51
2022/09/17 11:45:31;;;;;;;8.52;7.70;;;17.70;99.90;;;;;;4954237;28;20122;-51
2022/09/17 11:48:23;;;;;;;8.98;7.60;;;17.70;99.90;;;;;;4987595;28;20105;-50
2022/09/17 11:50:56;;;;;;;8.55;7.65;;;17.60;99.90;;;;;;4968538;28;20409;-51
2022/09/17 11:53:31;;;;;;;10.35;7.72;;;17.70;99.90;;;;;;4984541;28;20042;-52
2022/09/17 11:56:06;;;;;;;9.07;8.18;;;17.20;99.90;;;;;;4971507;28;20065;-50
2022/09/17 11:58:36;;;;;;;10.50;7.13;;;;;;;;;;4984763;28;20092;-51
2022/09/17 12:01:23;;;;;;;10.30;7.22;;;16.80;99.90;;;;;;5020952;28;20034;-53
2022/09/17 12:03:55;;;;;;;8.85;7.80;;;16.60;99.90;;;;;;5017304;28;20037;-50
2022/09/17 12:06:35;;;;;;;;;;;16.60;99.90;;;;;;5017720;28;20030;-52
2022/09/17 12:09:21;;;;;;;9.25;7.78;;;16.60;99.90;;;;;;5004794;28;19979;-49
2022/09/17 12:11:54;;;;;;;9.88;8.23;;;16.40;99.90;;;;;;5019073;28;20030;-53
2022/09/17 12:14:29;;;;;;;7.20;5.85;;;16.50;99.90;;;;;;5028036;28;20025;-52
2022/09/17 12:17:00;;;;;;;6.80;6.10;;;16.20;99.90;;;;;;5021259;28;20089;-50
2022/09/17 12:19:35;;;;;;;6.50;5.28;;;16.20;99.90;;;;;;5021025;28;20588;-49
2022/09/17 12:22:09;;;;;;;6.38;4.68;;;16.10;99.90;;;;;;5030474;28;20071;-49
2022/09/17 12:24:36;;;;;;;6.38;5.50;;;16.00;99.90;;;;;;5041809;28;20041;-52
2022/09/17 12:27:17;;;;;;;6.95;5.18;;;16.00;99.90;;;;;;5018177;28;20037;-51
2022/09/17 12:30:03;;;;;;;5.32;4.82;;;16.10;99.90;;;;;;5022121;28;20053;-50
2022/09/17 12:33:07;;;;;;;5.68;4.82;;;16.20;99.90;;;;;;5018865;28;20045;-50
2022/09/17 12:35:49;;;;;;;7.85;5.63;;;16.10;99.90;;;;;;4942388;28;20076;-52
2022/09/17 12:38:17;;;;;;;;;;;16.20;99.90;;;;;;4989426;28;20540;-52
2022/09/17 12:40:52;;;;;;;6.15;5.22;;;16.20;99.90;;;;;;4991196;28;19910;-51
2022/09/17 12:43:38;;;;;;;7.03;5.35;;;16.20;99.90;;;;;;4992969;28;20038;-52
2022/09/17 12:46:24;;;;;;;6.68;5.93;;;16.30;99.90;;;;;;4994175;28;20117;-48
2022/09/17 12:49:19;;;;;;;6.95;5.60;;;16.50;99.90;;;;;;4957310;28;20044;-51
2022/09/17 12:52:06;;;;;;;7.25;4.95;;;16.60;99.90;;;;;;4972593;28;20393;-50
2022/09/17 12:54:56;;;;;;;6.50;5.13;;;16.60;99.90;;;;;;4972871;28;20041;-51
2022/09/17 12:57:49;;;;;;;9.40;6.05;;;16.60;99.90;;;;;;4990766;28;20058;-52
2022/09/17 13:00:15;;;;;;;7.18;5.60;;;16.60;99.90;;;;;;4990937;28;20051;-51
2022/09/17 13:02:48;;;;;;;5.90;5.30;;;16.70;99.90;;;;;;4959293;28;20038;-50
2022/09/17 13:05:38;;;;;;;7.78;5.68;;;16.60;99.90;;;;;;4992395;28;20454;-47
2022/09/17 13:08:25;;;;;;;6.18;4.82;;;16.60;99.90;;;;;;4991457;28;20489;-57
2022/09/17 13:11:19;;;;;;;7.63;5.50;;;16.70;99.90;;;;;;4992655;28;20038;-53
2022/09/17 13:14:03;;;;;;;6.88;6.00;;;16.70;99.90;;;;;;5019814;28;20073;-50
2022/09/17 13:16:35;;;;;;;10.38;7.75;;;16.60;99.90;;;;;;5020485;28;20416;-51
2022/09/17 13:19:13;;;;;;;12.35;8.68;;;16.50;99.90;;;;;;5019545;28;20026;-53
2022/09/17 13:22:00;;;;;;;9.60;8.52;;;16.50;99.90;;;;;;5020213;28;20048;-50
2022/09/17 13:24:30;;;;;;;7.38;6.38;;;16.60;99.90;;;;;;5018728;28;20036;-53
2022/09/17 13:26:57;;;;;;;7.80;5.88;;;16.60;99.90;;;;;;5005595;28;20044;-53
2022/09/17 13:29:42;;;;;;;6.10;5.07;;;16.70;99.90;;;;;;5024383;28;20049;-52
2022/09/17 13:32:08;;;;;;;6.07;4.40;;;16.60;99.90;;;;;;5014383;28;20109;-52
2022/09/17 13:34:35;;;;;;;6.00;5.18;;;16.60;99.90;;;;;;4997372;28;20044;-50
2022/09/17 13:37:16;;;;;;;7.00;5.60;;;16.70;99.90;;;;;;5028053;28;20112;-51
2022/09/17 13:39:44;;;;;;;7.13;6.22;;;16.60;99.90;;;;;;5022423;28;20038;-52
2022/09/17 13:42:14;;;;;;;7.55;5.97;;;16.60;99.90;;;;;;5024864;28;20029;-52
2022/09/17 13:44:46;;;;;;;8.38;6.03;;;16.50;99.90;;;;;;5020052;28;20481;-51
2022/09/17 13:47:18;;;;;;;7.65;6.15;;;16.50;99.90;;;;;;5023838;28;20041;-53
2022/09/17 13:49:45;;;;;;;;;;;16.40;99.90;;;;;;5021878;28;20045;-53
2022/09/17 13:52:11;;;;;;;7.63;5.70;;;16.30;99.90;;;;;;5016957;28;19910;-49
2022/09/17 13:54:38;;;;;;;6.00;5.07;;;16.30;99.90;;;;;;5020538;28;20452;-49
2022/09/17 13:57:09;;;;;;;6.05;5.15;;;16.30;99.90;;;;;;5018426;28;20084;-49
2022/09/17 13:59:36;;;;;;;6.82;4.43;;;16.20;99.90;;;;;;5016127;28;20042;-51
2022/09/17 14:02:02;;;;;;;7.00;5.75;;;16.00;99.90;;;;;;5018274;28;20041;-53
2022/09/17 14:04:40;;;;;;;6.85;4.85;;;;;;;;;;5014731;28;20120;-50
2022/09/17 14:07:27;;;;;;;5.70;4.13;;;15.80;99.90;;;;;;5013816;28;20034;-50
2022/09/17 14:09:59;;;;;;;6.53;5.35;;;15.60;99.90;;;;;;5018261;28;20066;-53
2022/09/17 14:12:41;;;;;;;7.32;5.78;;;15.60;99.90;;;;;;5019336;28;20112;-52
2022/09/17 14:15:32;;;;;;;6.90;5.20;;;15.40;99.90;;;;;;5015526;28;20080;-51
2022/09/17 14:17:58;;;;;;;7.18;5.78;;;15.40;99.90;;;;;;5020341;28;20096;-50
2022/09/17 14:20:25;;;;;;;8.50;4.75;;;15.40;99.90;;;;;;5018742;28;20033;-51
2022/09/17 14:22:59;;;;;;;6.85;5.13;;;15.40;99.90;;;;;;5018256;28;20042;-51
2022/09/17 14:25:44;;;;;;;4.97;4.47;;;15.30;99.90;;;;;;4992718;28;20420;-50
2022/09/17 14:28:28;;;;;;;8.02;5.30;;;15.30;99.90;;;;;;5021902;28;20030;-53
2022/09/17 14:30:54;;;;;;;5.93;4.65;;;;;;;;;;5021177;28;20040;-53
2022/09/17 14:33:29;;;;;;;5.30;4.43;;;15.30;99.90;;;;;;5019904;28;20461;-54
2022/09/17 14:36:09;;;;;;;6.13;5.32;;;15.10;99.90;;;;;;5006905;28;20041;-52
2022/09/17 14:38:43;;;;;;;7.30;4.80;;;15.00;99.90;;;;;;5017555;28;20629;-52
2022/09/17 14:41:12;;;;;;;4.75;4.20;;;14.90;99.90;;;;;;5018398;28;20477;-51
2022/09/17 14:43:53;;;;;;;4.50;3.70;;;15.00;99.90;;;;;;5017174;28;20032;-52
2022/09/17 14:46:28;;;;;;;5.57;4.03;;;15.00;99.90;;;;;;5023077;28;20060;-51
2022/09/17 14:48:54;;;;;;;6.90;5.55;;;15.00;99.90;;;;;;5018492;28;20037;-51
2022/09/17 14:51:24;;;;;;;6.97;4.90;;;15.00;99.90;;;;;;5018466;28;20412;-50
2022/09/17 14:54:27;;;;;;;6.32;4.97;;;14.90;99.90;;;;;;5025145;28;20025;-53
2022/09/17 14:56:56;;;;;;;7.00;5.47;;;14.70;99.90;;;;;;5004398;28;20120;-50
2022/09/17 14:59:28;;;;;;;6.07;4.78;;;14.70;99.90;;;;;;5019058;28;20050;-50
2022/09/17 15:01:54;;;;;;;6.38;5.20;;;14.60;99.90;;;;;;5011697;28;20041;-53
2022/09/17 15:04:23;;;;;;;6.35;5.65;;;14.70;99.90;;;;;;5018724;28;20083;-50
2022/09/17 15:06:50;;;;;;;7.15;5.30;;;14.90;99.90;;;;;;5018588;28;20077;-51
2022/09/17 15:09:24;;;;;;;8.00;5.85;;;15.00;99.90;;;;;;5000212;28;20378;-50
2022/09/17 15:11:53;;;;;;;6.22;5.45;;;15.10;99.90;;;;;;5010461;28;20040;-51
2022/09/17 15:14:26;;;;;;;7.95;6.18;;;15.10;99.90;;;;;;5016755;28;20036;-49
2022/09/17 15:16:54;;;;;;;7.07;5.10;;;15.10;99.90;;;;;;5017130;28;20037;-50
2022/09/17 15:19:27;;;;;;;7.70;6.25;;;14.90;99.90;;;;;;5022840;28;20033;-51
2022/09/17 15:21:56;;;;;;;6.32;5.57;;;15.00;99.90;;;;;;5023433;28;20069;-52
2022/09/17 15:24:53;;;;;;;6.45;5.45;;;15.00;99.90;;;;;;4992411;28;20042;-49
2022/09/17 15:27:30;;;;;;;4.97;4.47;;;15.00;99.90;;;;;;5017508;28;20038;-52
2022/09/17 15:30:04;;;;;;;4.68;4.18;;;14.80;99.90;;;;;;5017930;28;20041;-51
2022/09/17 15:32:32;;;;;;;4.57;3.40;;;14.80;99.90;;;;;;4997431;28;20050;-49
2022/09/17 15:35:16;;;;;;;6.50;4.40;;;14.60;99.90;;;;;;4950778;28;20077;-50
2022/09/17 15:37:49;;;;;;;4.75;3.60;;;;;;;;;;4952934;28;20047;-49
2022/09/17 15:40:37;;;;;;;6.15;3.42;;;14.50;99.90;;;;;;4955804;28;20035;-52
2022/09/17 15:43:24;;;;;;;4.40;3.47;;;14.50;99.90;;;;;;4953817;28;20043;-50
2022/09/17 15:45:50;;;;;;;2.78;2.20;;;14.50;99.90;;;;;;4952837;28;20448;-49
2022/09/17 15:48:21;;;;;;;5.97;3.95;;;14.30;99.90;;;;;;4952422;28;20035;-51
2022/09/17 15:50:56;;;;;;;4.82;3.67;;;14.30;99.90;;;;;;4954297;28;20110;-50
2022/09/17 15:53:27;;;;;;;5.43;3.90;;;14.30;99.90;;;;;;4953846;28;20118;-55
2022/09/17 15:56:11;;;;;;;4.22;3.42;;;14.30;99.90;;;;;;4954113;28;20074;-52
2022/09/17 15:58:45;;;;;;;5.75;3.47;;;14.40;99.90;;;;;;4951892;28;20095;-53
2022/09/17 16:01:14;;;;;;;4.82;3.25;;;14.30;99.90;;;;;;4950965;28;20455;-53
2022/09/17 16:03:40;;;;;;;3.90;3.28;;;14.30;99.90;;;;;;4973004;28;20042;-50
2022/09/17 16:06:18;;;;;;;3.45;2.25;;;14.10;99.90;;;;;;4991711;28;20038;-49
2022/09/17 16:08:59;;;;;;;5.43;3.17;;;14.10;99.90;;;;;;4985578;28;20530;-50
2022/09/17 16:11:28;;;;;;;5.68;3.25;;;14.00;99.90;;;;;;4991797;28;20121;-52
2022/09/17 16:13:55;;;;;;;4.70;3.45;;;14.20;99.90;;;;;;4986175;28;20115;-52
2022/09/17 16:16:31;;;;;;;5.80;3.25;;;14.20;99.90;;;;;;5020383;28;20038;-51
2022/09/17 16:18:57;;;;;;;4.90;3.50;;;14.30;99.90;;;;;;5023582;28;20033;-49
2022/09/17 16:21:24;;;;;;;5.32;3.35;;;14.40;99.90;;;;;;5003584;28;20125;-51
2022/09/17 16:23:52;;;;;;;4.80;3.33;;;14.50;99.90;;;;;;4998695;28;20037;-51
2022/09/17 16:26:31;;;;;;;4.85;3.70;;;14.50;99.90;;;;;;5030033;28;20064;-52
2022/09/17 16:29:04;;;;;;;5.85;3.60;;;14.50;99.90;;;;;;5021267;28;20029;-55
2022/09/17 16:31:30;;;;;;;5.43;2.97;;;14.40;99.90;;;;;;5022651;28;20025;-49
2022/09/17 16:33:56;;;;;;;3.72;2.20;;;14.10;99.90;;;;;;5007829;28;20037;-51
2022/09/17 16:36:23;;;;;;;5.20;3.80;;;13.90;99.90;;;;;;5019944;28;20030;-53
2022/09/17 16:38:48;;;;;;;6.45;3.88;;;14.00;99.90;;;;;;5022149;28;20041;-51
2022/09/17 16:41:14;;;;;;;6.40;3.95;;;14.20;99.90;;;;;;5018214;28;20030;-50
2022/09/17 16:43:40;;;;;;;7.68;4.13;;;14.20;99.90;;;;;;5002559;28;20037;-51
2022/09/17 16:46:09;;;;;;;6.80;4.60;;;14.30;99.90;;;;;;5019544;28;20026;-48
2022/09/17 16:48:35;;;;;;;5.15;3.90;;;14.30;99.90;;;;;;5026632;28;20041;-53
2022/09/17 16:51:07;;;;;;;5.22;3.67;;;14.30;99.90;;;;;;5022399;28;20076;-51
2022/09/17 16:53:33;;;;;;;;;;;14.20;99.90;;;;;;5013307;28;20041;-50
2022/09/17 16:55:59;;;;;;;4.78;3.70;;;14.20;99.90;;;;;;5023008;28;20371;-52
2022/09/17 16:58:25;;;;;;;3.50;3.03;;;14.10;99.90;;;;;;5022021;28;20030;-52